createdAt,value
2017-09-28T00:01:59.679Z,16.28
2017-09-28T00:04:27.280Z,16.27
2017-09-28T00:06:54.911Z,16.21
2017-09-28T00:09:22.827Z,16.17
2017-09-28T00:11:50.508Z,16.19
2017-09-28T00:14:18.462Z,16.19
2017-09-28T00:16:46.049Z,16.19
2017-09-28T00:19:13.670Z,16.17
2017-09-28T00:21:41.257Z,16.16
2017-09-28T00:24:08.894Z,16.20
2017-09-28T00:26:36.477Z,16.19
2017-09-28T00:29:04.117Z,16.14
2017-09-28T00:31:31.749Z,16.15
2017-09-28T00:33:59.342Z,16.13
2017-09-28T00:36:26.965Z,16.10
2017-09-28T00:38:54.558Z,16.08
2017-09-28T00:41:22.145Z,16.12
2017-09-28T00:43:49.789Z,16.11
2017-09-28T00:46:17.392Z,16.14
2017-09-28T00:48:45.008Z,16.16
2017-09-28T00:51:12.606Z,16.19
2017-09-28T00:53:40.453Z,16.17
2017-09-28T00:56:08.427Z,16.16
2017-09-28T00:58:36.293Z,16.10
2017-09-28T01:01:04.260Z,16.04
2017-09-28T01:03:31.852Z,16.06
2017-09-28T01:05:59.478Z,16.05
2017-09-28T01:08:27.352Z,16.07
2017-09-28T01:10:54.957Z,16.01
2017-09-28T01:13:22.579Z,16.06
2017-09-28T01:15:50.158Z,16.01
2017-09-28T01:18:17.756Z,16.01
2017-09-28T01:20:45.372Z,16.02
2017-09-28T01:23:12.981Z,15.99
2017-09-28T01:25:40.629Z,16.01
2017-09-28T01:28:08.461Z,15.98
2017-09-28T01:30:36.058Z,16.02
2017-09-28T01:33:03.689Z,15.99
2017-09-28T01:35:31.288Z,15.97
2017-09-28T01:37:58.934Z,15.91
2017-09-28T01:40:26.526Z,15.96
2017-09-28T01:42:54.125Z,15.95
2017-09-28T01:45:21.753Z,15.94
2017-09-28T01:47:49.655Z,16.00
2017-09-28T01:50:17.281Z,16.03
2017-09-28T01:52:44.906Z,16.04
2017-09-28T01:55:12.751Z,16.00
2017-09-28T01:57:40.384Z,15.90
2017-09-28T02:00:08.285Z,15.93
2017-09-28T02:02:35.925Z,15.87
2017-09-28T02:05:03.521Z,15.87
2017-09-28T02:07:31.104Z,15.88
2017-09-28T02:09:59.034Z,15.93
2017-09-28T02:12:26.650Z,15.88
2017-09-28T02:14:54.369Z,15.86
2017-09-28T02:17:21.969Z,15.84
2017-09-28T02:19:49.576Z,15.81
2017-09-28T02:22:17.212Z,15.80
2017-09-28T02:24:44.792Z,15.80
2017-09-28T02:27:12.439Z,15.77
2017-09-28T02:29:40.044Z,15.77
2017-09-28T02:32:07.657Z,15.74
2017-09-28T02:34:35.560Z,15.78
2017-09-28T02:37:03.164Z,15.72
2017-09-28T02:39:30.839Z,15.67
2017-09-28T02:41:58.439Z,15.65
2017-09-28T02:44:26.054Z,15.61
2017-09-28T02:46:53.677Z,15.63
2017-09-28T02:49:21.288Z,15.58
2017-09-28T02:51:48.925Z,15.55
2017-09-28T02:54:16.520Z,15.59
2017-09-28T02:56:44.116Z,15.65
2017-09-28T02:59:11.737Z,15.60
2017-09-28T03:01:39.334Z,15.57
2017-09-28T03:04:06.985Z,15.60
2017-09-28T03:06:34.977Z,15.58
2017-09-28T03:09:02.586Z,15.55
2017-09-28T03:11:30.277Z,15.54
2017-09-28T03:13:57.884Z,15.51
2017-09-28T03:16:25.841Z,15.49
2017-09-28T03:18:53.449Z,15.42
2017-09-28T03:21:21.040Z,15.41
2017-09-28T03:23:48.678Z,15.38
2017-09-28T03:26:16.312Z,15.34
2017-09-28T03:28:43.964Z,15.32
2017-09-28T03:31:11.566Z,15.35
2017-09-28T03:33:39.205Z,15.36
2017-09-28T03:36:06.826Z,15.40
2017-09-28T03:38:34.446Z,15.43
2017-09-28T03:41:02.092Z,15.37
2017-09-28T03:43:29.705Z,15.35
2017-09-28T03:45:57.311Z,15.27
2017-09-28T03:48:24.921Z,15.31
2017-09-28T03:50:52.532Z,15.34
2017-09-28T03:53:20.193Z,15.30
2017-09-28T03:55:47.792Z,15.28
2017-09-28T03:58:15.697Z,15.30
2017-09-28T04:00:43.317Z,15.25
2017-09-28T04:03:10.944Z,15.25
2017-09-28T04:05:38.911Z,15.24
2017-09-28T04:08:06.495Z,15.26
2017-09-28T04:10:34.144Z,15.18
2017-09-28T04:13:01.756Z,15.23
2017-09-28T04:15:29.364Z,15.29
2017-09-28T04:17:57.006Z,15.24
2017-09-28T04:20:24.596Z,15.22
2017-09-28T04:22:52.208Z,15.22
2017-09-28T04:25:19.817Z,15.19
2017-09-28T04:27:47.756Z,15.10
2017-09-28T04:30:15.750Z,15.10
2017-09-28T04:32:43.339Z,14.97
2017-09-28T04:35:10.939Z,15.00
2017-09-28T04:37:38.563Z,14.97
2017-09-28T04:40:06.145Z,15.01
2017-09-28T04:42:33.728Z,14.99
2017-09-28T04:45:01.364Z,14.97
2017-09-28T04:47:29.273Z,14.94
2017-09-28T04:49:56.859Z,14.94
2017-09-28T04:52:24.506Z,14.97
2017-09-28T04:54:52.091Z,14.95
2017-09-28T04:57:19.697Z,14.86
2017-09-28T04:59:47.325Z,14.87
2017-09-28T05:02:15.245Z,14.79
2017-09-28T05:04:42.859Z,14.83
2017-09-28T05:07:10.452Z,14.83
2017-09-28T05:09:38.055Z,14.91
2017-09-28T05:12:05.687Z,14.85
2017-09-28T05:14:33.277Z,14.85
2017-09-28T05:17:00.904Z,14.81
2017-09-28T05:19:28.494Z,14.82
2017-09-28T05:21:56.096Z,14.76
2017-09-28T05:24:23.860Z,14.78
2017-09-28T05:26:51.899Z,14.84
2017-09-28T05:29:19.556Z,14.73
2017-09-28T05:31:47.172Z,14.66
2017-09-28T05:34:14.880Z,14.65
2017-09-28T05:36:42.849Z,14.66
2017-09-28T05:39:10.450Z,14.67
2017-09-28T05:41:38.121Z,14.66
2017-09-28T05:44:05.732Z,14.71
2017-09-28T05:46:33.376Z,14.69
2017-09-28T05:49:00.992Z,14.67
2017-09-28T05:51:28.593Z,14.63
2017-09-28T05:53:56.232Z,14.64
2017-09-28T05:56:23.825Z,14.61
2017-09-28T05:58:51.430Z,14.63
2017-09-28T06:01:19.084Z,14.60
2017-09-28T06:03:46.672Z,14.65
2017-09-28T06:06:14.305Z,14.60
2017-09-28T06:08:41.900Z,14.62
2017-09-28T06:11:09.487Z,14.66
2017-09-28T06:13:37.112Z,14.66
2017-09-28T06:16:04.699Z,14.65
2017-09-28T06:18:32.344Z,14.64
2017-09-28T06:20:59.967Z,14.65
2017-09-28T06:23:27.585Z,14.69
2017-09-28T06:25:55.243Z,14.72
2017-09-28T06:28:22.868Z,14.71
2017-09-28T06:30:50.528Z,14.73
2017-09-28T06:33:18.132Z,14.74
2017-09-28T06:35:45.710Z,14.76
2017-09-28T06:38:13.349Z,14.86
2017-09-28T06:40:40.944Z,14.82
2017-09-28T06:43:08.589Z,14.73
2017-09-28T06:45:36.176Z,14.79
2017-09-28T06:48:03.772Z,14.82
2017-09-28T06:50:31.605Z,14.85
2017-09-28T06:52:59.198Z,14.85
2017-09-28T06:55:26.835Z,14.89
2017-09-28T06:57:54.693Z,15.02
2017-09-28T07:00:22.292Z,15.20
2017-09-28T07:02:49.944Z,15.33
2017-09-28T07:05:17.554Z,15.50
2017-09-28T07:07:45.192Z,15.51
2017-09-28T07:13:05.295Z,15.74
2017-09-28T07:15:33.224Z,15.90
2017-09-28T07:18:00.825Z,15.90
2017-09-28T07:20:28.450Z,15.77
2017-09-28T07:22:56.048Z,15.70
2017-09-28T07:25:23.976Z,15.75
2017-09-28T07:27:51.577Z,15.81
2017-09-28T07:30:19.197Z,15.79
2017-09-28T07:32:46.816Z,15.65
2017-09-28T07:35:14.400Z,15.65
2017-09-28T07:37:42.037Z,15.77
2017-09-28T07:40:09.639Z,15.87
2017-09-28T07:42:37.257Z,16.03
2017-09-28T07:45:04.885Z,16.00
2017-09-28T07:47:32.479Z,15.99
2017-09-28T07:50:00.124Z,15.97
2017-09-28T07:52:27.712Z,15.86
2017-09-28T07:54:55.305Z,16.04
2017-09-28T07:57:22.927Z,16.30
2017-09-28T07:59:50.853Z,16.55
2017-09-28T08:02:18.480Z,16.61
2017-09-28T08:04:46.084Z,16.82
2017-09-28T08:07:13.680Z,16.92
2017-09-28T08:09:41.302Z,16.91
2017-09-28T08:12:08.929Z,16.80
2017-09-28T08:14:36.556Z,16.75
2017-09-28T08:17:04.165Z,16.86
2017-09-28T08:19:31.776Z,16.84
2017-09-28T08:21:59.385Z,16.97
2017-09-28T08:24:26.987Z,17.03
2017-09-28T08:26:54.941Z,17.00
2017-09-28T08:29:22.540Z,17.05
2017-09-28T08:31:50.183Z,17.14
2017-09-28T08:34:17.889Z,17.25
2017-09-28T08:36:45.518Z,17.37
2017-09-28T08:39:13.174Z,17.50
2017-09-28T08:41:40.772Z,17.55
2017-09-28T08:44:08.388Z,17.83
2017-09-28T08:46:36.051Z,17.92
2017-09-28T08:49:03.640Z,18.09
2017-09-28T08:51:31.291Z,18.25
2017-09-28T08:53:58.896Z,18.34
2017-09-28T08:56:26.475Z,18.38
2017-09-28T08:58:54.084Z,18.67
2017-09-28T09:01:21.679Z,19.00
2017-09-28T09:03:49.291Z,19.27
2017-09-28T09:06:16.868Z,19.42
2017-09-28T09:08:44.963Z,19.62
2017-09-28T09:11:12.582Z,19.60
2017-09-28T09:13:40.201Z,19.89
2017-09-28T09:16:08.096Z,20.16
2017-09-28T09:18:35.968Z,20.28
2017-09-28T09:21:03.841Z,20.51
2017-09-28T09:23:31.804Z,20.40
2017-09-28T09:25:59.387Z,20.29
2017-09-28T09:28:27.412Z,20.11
2017-09-28T09:30:55.002Z,19.83
2017-09-28T09:33:22.581Z,19.56
2017-09-28T09:35:50.210Z,19.37
2017-09-28T09:38:18.090Z,19.24
2017-09-28T09:40:45.740Z,19.33
2017-09-28T09:43:13.620Z,19.11
2017-09-28T09:45:41.487Z,19.13
2017-09-28T09:48:09.114Z,19.18
2017-09-28T09:50:36.712Z,19.24
2017-09-28T09:53:04.679Z,19.30
2017-09-28T09:55:32.275Z,19.38
2017-09-28T09:58:00.231Z,19.30
2017-09-28T10:00:27.859Z,19.26
2017-09-28T10:02:55.849Z,19.05
2017-09-28T10:05:23.816Z,18.91
2017-09-28T10:08:06.018Z,18.97
2017-09-28T10:10:43.771Z,19.00
2017-09-28T10:13:16.416Z,18.76
2017-09-28T10:16:05.190Z,18.97
2017-09-28T10:18:32.787Z,19.25
2017-09-28T10:21:00.691Z,19.73
2017-09-28T10:23:28.324Z,20.34
2017-09-28T10:25:55.943Z,20.63
2017-09-28T10:28:23.579Z,20.75
2017-09-28T10:30:51.179Z,20.56
2017-09-28T10:33:18.781Z,20.33
2017-09-28T10:35:46.403Z,20.16
2017-09-28T10:38:14.010Z,20.05
2017-09-28T10:40:41.642Z,19.96
2017-09-28T10:43:09.252Z,19.89
2017-09-28T10:45:36.865Z,19.87
2017-09-28T10:48:04.481Z,19.60
2017-09-28T10:50:32.070Z,19.47
2017-09-28T10:52:59.685Z,19.56
2017-09-28T10:55:27.293Z,19.58
2017-09-28T10:57:54.885Z,19.68
2017-09-28T11:00:22.534Z,19.62
2017-09-28T11:02:50.147Z,19.43
2017-09-28T11:05:17.909Z,19.38
2017-09-28T11:07:45.503Z,19.45
2017-09-28T11:10:13.121Z,19.45
2017-09-28T11:12:40.749Z,19.45
2017-09-28T11:15:08.338Z,19.47
2017-09-28T11:17:35.984Z,19.52
2017-09-28T11:20:03.586Z,19.74
2017-09-28T11:22:31.234Z,19.60
2017-09-28T11:24:58.907Z,19.62
2017-09-28T11:27:26.520Z,19.77
2017-09-28T11:29:54.182Z,19.86
2017-09-28T11:32:21.820Z,20.00
2017-09-28T11:34:49.427Z,20.07
2017-09-28T11:37:17.073Z,20.22
2017-09-28T11:39:44.686Z,20.30
2017-09-28T11:42:12.330Z,20.40
2017-09-28T11:44:39.951Z,20.58
2017-09-28T11:47:07.873Z,20.89
2017-09-28T11:49:35.520Z,21.09
2017-09-28T11:52:03.134Z,21.03
2017-09-28T11:54:30.866Z,21.13
2017-09-28T11:56:58.497Z,21.34
2017-09-28T11:59:26.118Z,21.32
2017-09-28T12:01:53.781Z,21.55
2017-09-28T12:04:21.385Z,21.67
2017-09-28T12:06:49.019Z,21.84
2017-09-28T12:09:16.628Z,22.20
2017-09-28T12:11:44.292Z,22.82
2017-09-28T12:14:12.274Z,23.83
2017-09-28T12:16:39.896Z,25.23
2017-09-28T12:19:07.530Z,26.88
2017-09-28T12:21:35.132Z,27.25
2017-09-28T12:24:02.739Z,26.99
2017-09-28T12:26:30.369Z,26.21
2017-09-28T12:28:57.971Z,24.96
2017-09-28T12:31:25.909Z,24.28
2017-09-28T12:33:53.509Z,23.62
2017-09-28T12:36:21.436Z,23.09
2017-09-28T12:38:49.066Z,22.58
2017-09-28T12:41:16.659Z,21.84
2017-09-28T12:43:44.292Z,21.50
2017-09-28T12:46:11.885Z,21.41
2017-09-28T12:48:39.489Z,21.12
2017-09-28T12:51:07.127Z,21.15
2017-09-28T12:53:34.977Z,21.17
2017-09-28T12:56:02.565Z,21.17
2017-09-28T12:58:30.197Z,21.14
2017-09-28T13:00:57.791Z,21.16
2017-09-28T13:03:25.382Z,21.02
2017-09-28T13:05:53.009Z,21.02
2017-09-28T13:08:20.637Z,21.13
2017-09-28T13:10:48.228Z,21.13
2017-09-28T13:13:15.857Z,21.21
2017-09-28T13:15:43.446Z,21.02
2017-09-28T13:18:11.101Z,20.87
2017-09-28T13:20:38.680Z,20.69
2017-09-28T13:23:06.634Z,20.59
2017-09-28T13:25:34.292Z,20.58
2017-09-28T13:28:01.875Z,20.54
2017-09-28T13:30:29.510Z,20.47
2017-09-28T13:32:57.140Z,20.40
2017-09-28T13:35:24.733Z,20.40
2017-09-28T13:37:52.382Z,20.32
2017-09-28T13:40:19.968Z,20.33
2017-09-28T13:42:47.628Z,20.19
2017-09-28T13:45:15.497Z,20.15
2017-09-28T13:47:43.092Z,20.15
2017-09-28T13:50:10.716Z,20.28
2017-09-28T13:52:38.303Z,20.24
2017-09-28T13:55:05.972Z,20.31
2017-09-28T13:57:33.569Z,20.27
2017-09-28T14:00:01.165Z,20.25
2017-09-28T14:02:28.826Z,20.30
2017-09-28T14:04:56.700Z,20.23
2017-09-28T14:07:24.316Z,20.20
2017-09-28T14:09:51.928Z,20.07
2017-09-28T14:12:19.545Z,20.06
2017-09-28T14:14:47.171Z,19.98
2017-09-28T14:17:14.758Z,19.94
2017-09-28T14:19:42.424Z,19.91
2017-09-28T14:22:10.009Z,19.95
2017-09-28T14:24:37.605Z,20.05
2017-09-28T14:27:05.211Z,20.16
2017-09-28T14:29:32.803Z,20.27
2017-09-28T14:32:00.448Z,20.37
2017-09-28T14:34:28.028Z,20.44
2017-09-28T14:36:55.607Z,20.50
2017-09-28T14:39:23.463Z,20.45
2017-09-28T14:41:51.647Z,20.44
2017-09-28T14:44:19.285Z,20.50
2017-09-28T14:46:46.869Z,20.52
2017-09-28T14:49:14.471Z,20.52
2017-09-28T14:51:42.083Z,20.57
2017-09-28T14:54:09.696Z,20.58
2017-09-28T14:56:37.368Z,20.52
2017-09-28T14:59:04.949Z,20.45
2017-09-28T15:01:32.532Z,20.37
2017-09-28T15:04:00.159Z,20.32
2017-09-28T15:06:27.744Z,20.29
2017-09-28T15:08:55.380Z,20.13
2017-09-28T15:11:22.989Z,20.04
2017-09-28T15:13:50.614Z,19.97
2017-09-28T15:16:18.533Z,19.87
2017-09-28T15:18:46.117Z,19.81
2017-09-28T15:21:13.801Z,19.79
2017-09-28T15:23:41.401Z,19.69
2017-09-28T15:26:08.997Z,19.61
2017-09-28T15:28:36.617Z,19.52
2017-09-28T15:31:04.508Z,19.48
2017-09-28T15:33:32.130Z,19.46
2017-09-28T15:35:59.740Z,19.42
2017-09-28T15:38:27.329Z,19.39
2017-09-28T15:40:54.947Z,19.35
2017-09-28T15:43:22.551Z,19.32
2017-09-28T15:45:50.475Z,19.29
2017-09-28T15:48:18.363Z,19.30
2017-09-28T15:50:45.984Z,19.33
2017-09-28T15:53:13.620Z,19.30
2017-09-28T15:55:41.215Z,19.26
2017-09-28T15:58:08.844Z,19.28
2017-09-28T16:00:36.437Z,19.27
2017-09-28T16:03:04.427Z,19.27
2017-09-28T16:05:32.037Z,19.24
2017-09-28T16:07:59.620Z,19.14
2017-09-28T16:10:27.240Z,19.14
2017-09-28T16:12:54.826Z,19.17
2017-09-28T16:15:22.416Z,19.12
2017-09-28T16:17:50.046Z,19.10
2017-09-28T16:20:17.628Z,19.04
2017-09-28T16:22:45.298Z,18.99
2017-09-28T16:25:13.191Z,18.99
2017-09-28T16:27:41.057Z,18.98
2017-09-28T16:30:08.688Z,18.98
2017-09-28T16:32:36.324Z,18.92
2017-09-28T16:35:04.246Z,18.98
2017-09-28T16:37:32.116Z,18.95
2017-09-28T16:39:59.695Z,18.87
2017-09-28T16:42:27.319Z,18.82
2017-09-28T16:44:54.899Z,18.77
2017-09-28T16:47:22.519Z,18.76
2017-09-28T16:49:50.100Z,18.72
2017-09-28T16:52:17.987Z,18.71
2017-09-28T16:54:45.599Z,18.67
2017-09-28T16:57:13.189Z,18.62
2017-09-28T16:59:40.815Z,18.58
2017-09-28T17:02:08.432Z,18.60
2017-09-28T17:04:36.021Z,18.55
2017-09-28T17:07:03.642Z,18.58
2017-09-28T17:09:31.230Z,18.52
2017-09-28T17:11:58.898Z,18.44
2017-09-28T17:14:26.855Z,18.43
2017-09-28T17:16:54.724Z,18.42
2017-09-28T17:19:22.393Z,18.43
2017-09-28T17:21:50.006Z,18.40
2017-09-28T17:24:17.682Z,18.41
2017-09-28T17:26:45.289Z,18.41
2017-09-28T17:29:12.872Z,18.40
2017-09-28T17:31:40.485Z,18.32
2017-09-28T17:34:08.109Z,18.35
2017-09-28T17:36:36.025Z,18.35
2017-09-28T17:39:03.893Z,18.33
2017-09-28T17:41:31.479Z,18.31
2017-09-28T17:43:59.100Z,18.32
2017-09-28T17:46:26.686Z,18.33
2017-09-28T17:48:54.648Z,18.37
2017-09-28T17:51:22.317Z,18.36
2017-09-28T17:53:49.915Z,18.25
2017-09-28T17:56:17.547Z,18.21
2017-09-28T17:58:45.507Z,18.21
2017-09-28T18:01:13.134Z,18.17
2017-09-28T18:03:40.731Z,18.16
2017-09-28T18:06:09.425Z,18.19
2017-09-28T18:08:37.033Z,18.17
2017-09-28T18:11:04.643Z,18.14
2017-09-28T18:13:32.269Z,18.15
2017-09-28T18:15:59.843Z,18.18
2017-09-28T18:18:27.468Z,18.16
2017-09-28T18:20:55.393Z,18.11
2017-09-28T18:23:22.981Z,18.06
2017-09-28T18:25:50.610Z,18.03
2017-09-28T18:28:18.490Z,18.00
2017-09-28T18:30:46.136Z,17.99
2017-09-28T18:33:13.809Z,17.99
2017-09-28T18:35:47.316Z,18.02
2017-09-28T18:38:15.015Z,18.04
2017-09-28T18:40:42.637Z,17.98
2017-09-28T18:43:10.408Z,17.95
2017-09-28T18:45:38.015Z,17.91
2017-09-28T18:48:05.620Z,17.90
2017-09-28T18:50:33.244Z,17.88
2017-09-28T18:53:00.832Z,17.88
2017-09-28T18:55:29.053Z,17.83
2017-09-28T18:57:57.001Z,17.86
2017-09-28T19:00:24.608Z,17.86
2017-09-28T19:02:52.227Z,17.90
2017-09-28T19:05:19.841Z,17.87
2017-09-28T19:07:47.652Z,17.84
2017-09-28T19:10:15.255Z,17.81
2017-09-28T19:12:43.184Z,17.83
2017-09-28T19:15:10.807Z,17.81
2017-09-28T19:17:38.407Z,17.81
2017-09-28T19:20:06.273Z,17.75
2017-09-28T19:22:33.895Z,17.71
2017-09-28T19:25:01.804Z,17.71
2017-09-28T19:27:29.446Z,17.73
2017-09-28T19:29:57.052Z,17.71
2017-09-28T19:32:24.641Z,17.68
2017-09-28T19:34:52.273Z,17.69
2017-09-28T19:37:20.397Z,17.70
2017-09-28T19:39:48.049Z,17.66
2017-09-28T19:42:15.630Z,17.69
2017-09-28T19:44:43.216Z,17.65
2017-09-28T19:47:10.828Z,17.61
2017-09-28T19:49:38.433Z,17.60
2017-09-28T19:52:06.127Z,17.60
2017-09-28T19:54:33.728Z,17.59
2017-09-28T19:57:01.321Z,17.57
2017-09-28T19:59:29.293Z,17.55
2017-09-28T20:01:56.881Z,17.57
2017-09-28T20:04:24.505Z,17.57
2017-09-28T20:06:52.100Z,17.53
2017-09-28T20:09:19.707Z,17.58
2017-09-28T20:11:47.318Z,17.51
2017-09-28T20:14:14.915Z,17.55
2017-09-28T20:16:42.841Z,17.53
2017-09-28T20:19:10.448Z,17.54
2017-09-28T20:21:38.074Z,17.57
2017-09-28T20:24:05.921Z,17.54
2017-09-28T20:26:33.560Z,17.51
2017-09-28T20:29:01.156Z,17.49
2017-09-28T20:31:28.752Z,17.48
2017-09-28T20:33:56.387Z,17.48
2017-09-28T20:36:24.568Z,17.49
2017-09-28T20:38:52.192Z,17.49
2017-09-28T20:41:19.788Z,17.49
2017-09-28T20:43:47.371Z,17.45
2017-09-28T20:46:14.990Z,17.42
2017-09-28T20:48:42.604Z,17.43
2017-09-28T20:51:10.224Z,17.41
2017-09-28T20:53:37.811Z,17.44
2017-09-28T20:56:05.412Z,17.42
2017-09-28T20:58:33.037Z,17.44
2017-09-28T21:01:00.620Z,17.42
2017-09-28T21:03:28.246Z,17.44
2017-09-28T21:05:55.828Z,17.45
2017-09-28T21:08:23.419Z,17.42
2017-09-28T21:10:51.051Z,17.41
2017-09-28T21:13:18.628Z,17.40
2017-09-28T21:15:46.703Z,17.37
2017-09-28T21:18:14.503Z,17.37
2017-09-28T21:20:42.089Z,17.38
2017-09-28T21:23:09.722Z,17.41
2017-09-28T21:25:37.320Z,17.38
2017-09-28T21:28:05.001Z,17.39
2017-09-28T21:30:32.927Z,17.45
2017-09-28T21:33:00.529Z,17.43
2017-09-28T21:35:28.132Z,17.42
2017-09-28T21:37:55.715Z,17.39
2017-09-28T21:40:23.692Z,17.41
2017-09-28T21:42:51.286Z,17.36
2017-09-28T21:45:18.904Z,17.41
2017-09-28T21:47:46.542Z,17.39
2017-09-28T21:50:14.136Z,17.38
2017-09-28T21:52:41.774Z,17.35
2017-09-28T21:55:09.362Z,17.35
2017-09-28T21:57:36.957Z,17.31
2017-09-28T22:00:04.563Z,17.32
2017-09-28T22:02:32.155Z,17.26
2017-09-28T22:04:59.802Z,17.24
2017-09-28T22:07:27.668Z,17.24
2017-09-28T22:09:55.273Z,17.22
2017-09-28T22:12:22.886Z,17.21
2017-09-28T22:14:50.479Z,17.20
2017-09-28T22:17:18.128Z,17.21
2017-09-28T22:19:45.731Z,17.19
2017-09-28T22:22:13.333Z,17.18
2017-09-28T22:24:40.980Z,17.20
2017-09-28T22:27:08.577Z,17.18
2017-09-28T22:29:36.246Z,17.16
2017-09-28T22:32:03.837Z,17.13
2017-09-28T22:34:31.427Z,17.15
2017-09-28T22:36:59.044Z,17.12
2017-09-28T22:39:26.624Z,17.09
2017-09-28T22:41:54.249Z,17.07
2017-09-28T22:44:21.848Z,17.07
2017-09-28T22:46:49.458Z,17.07
2017-09-28T22:49:17.084Z,17.07
2017-09-28T22:51:44.676Z,17.05
2017-09-28T22:54:12.659Z,17.02
2017-09-28T22:56:40.256Z,17.02
2017-09-28T22:59:07.857Z,16.99
2017-09-28T23:01:35.477Z,16.98
2017-09-28T23:04:03.064Z,17.03
2017-09-28T23:06:30.695Z,17.04
2017-09-28T23:08:58.280Z,17.03
2017-09-28T23:11:26.784Z,17.03
2017-09-28T23:13:54.410Z,17.00
2017-09-28T23:16:22.033Z,16.99
2017-09-28T23:18:49.675Z,16.98
2017-09-28T23:21:17.297Z,16.96
2017-09-28T23:23:45.227Z,16.95
2017-09-28T23:26:12.848Z,16.94
2017-09-28T23:28:40.444Z,16.95
2017-09-28T23:31:08.414Z,16.98
2017-09-28T23:33:36.299Z,16.98
2017-09-28T23:36:03.893Z,16.95
2017-09-28T23:38:31.520Z,16.94
2017-09-28T23:40:59.142Z,16.92
2017-09-28T23:43:27.257Z,16.91
2017-09-28T23:45:54.840Z,16.94
2017-09-28T23:48:22.452Z,16.96
2017-09-28T23:50:50.064Z,17.00
2017-09-28T23:53:17.667Z,16.98
2017-09-28T23:55:45.283Z,16.98
2017-09-28T23:58:12.908Z,16.99
